createdAt,value
2019-01-05T00:03:13.886Z,15.37
2019-01-05T00:08:41.197Z,15.73
2019-01-05T00:13:55.182Z,14.37
2019-01-05T00:19:10.969Z,16.83
2019-01-05T00:24:41.230Z,15.00
2019-01-05T00:30:17.004Z,14.60
2019-01-05T00:35:52.899Z,16.87
2019-01-05T00:41:11.532Z,16.77
2019-01-05T00:46:29.860Z,15.60
2019-01-05T00:51:46.222Z,15.67
2019-01-05T00:57:02.314Z,16.43
2019-01-05T01:02:16.488Z,17.30
2019-01-05T01:07:31.511Z,16.33
2019-01-05T01:13:01.649Z,17.70
2019-01-05T01:18:15.333Z,17.20
2019-01-05T01:23:30.102Z,18.17
2019-01-05T01:28:59.346Z,18.07
2019-01-05T01:34:11.163Z,18.03
2019-01-05T01:39:31.193Z,17.50
2019-01-05T01:45:04.089Z,15.97
2019-01-05T01:50:18.951Z,16.80
2019-01-05T01:55:36.614Z,16.40
2019-01-05T02:00:52.362Z,16.50
2019-01-05T02:06:10.579Z,16.67
2019-01-05T02:11:26.394Z,16.20
2019-01-05T02:17:07.200Z,15.80
2019-01-05T02:23:21.519Z,17.00
2019-01-05T02:29:34.966Z,16.30
2019-01-05T02:36:12.604Z,16.43
2019-01-05T02:42:41.966Z,18.47
2019-01-05T02:49:04.425Z,15.80
2019-01-05T02:55:42.209Z,15.83
2019-01-05T03:01:54.662Z,15.73
2019-01-05T03:08:17.340Z,14.77
2019-01-05T03:14:38.129Z,14.43
2019-01-05T03:21:01.087Z,14.83
2019-01-05T03:27:03.606Z,15.87
2019-01-05T03:33:02.665Z,15.13
2019-01-05T03:39:14.787Z,13.80
2019-01-05T03:45:21.198Z,14.73
2019-01-05T03:51:58.780Z,12.80
2019-01-05T03:58:15.104Z,13.63
2019-01-05T04:04:38.276Z,14.03
2019-01-05T04:10:39.832Z,13.63
2019-01-05T04:16:51.916Z,13.33
2019-01-05T04:23:03.239Z,13.20
2019-01-05T04:29:09.280Z,13.27
2019-01-05T04:35:22.450Z,14.60
2019-01-05T04:41:41.083Z,14.13
2019-01-05T04:48:16.324Z,12.40
2019-01-05T04:54:42.369Z,12.70
2019-01-05T05:00:46.228Z,13.27
2019-01-05T05:07:20.354Z,12.50
2019-01-05T05:13:32.115Z,12.70
2019-01-05T05:19:45.083Z,12.40
2019-01-05T05:25:56.049Z,12.37
2019-01-05T05:32:39.944Z,12.67
2019-01-05T05:44:08.671Z,12.07
2019-01-05T05:49:49.255Z,11.77
2019-01-05T05:56:14.426Z,11.70
2019-01-05T06:02:08.590Z,12.23
2019-01-05T06:08:34.412Z,11.70
2019-01-05T06:15:12.652Z,11.60
2019-01-05T06:21:54.403Z,13.20
2019-01-05T06:28:23.952Z,12.17
2019-01-05T06:34:30.933Z,12.70
2019-01-05T06:41:05.224Z,12.60
2019-01-05T06:47:48.161Z,14.53
2019-01-05T06:54:20.082Z,13.50
2019-01-05T07:00:49.710Z,15.63
2019-01-05T07:07:20.983Z,15.00
2019-01-05T07:13:14.510Z,15.30
2019-01-05T07:19:34.274Z,15.73
2019-01-05T07:25:59.302Z,14.67
2019-01-05T07:32:15.751Z,14.93
2019-01-05T07:38:56.561Z,16.13
2019-01-05T07:45:31.243Z,16.67
2019-01-05T07:51:36.811Z,15.17
2019-01-05T07:57:48.597Z,15.43
2019-01-05T08:04:00.642Z,17.13
2019-01-05T08:10:16.630Z,16.17
2019-01-05T08:16:12.298Z,17.37
2019-01-05T08:22:35.431Z,16.13
2019-01-05T08:28:37.035Z,17.57
2019-01-05T08:34:47.142Z,16.17
2019-01-05T08:40:48.175Z,17.00
2019-01-05T08:47:08.899Z,16.27
2019-01-05T08:53:12.303Z,14.63
2019-01-05T08:59:38.370Z,16.20
2019-01-05T09:05:50.803Z,16.10
2019-01-05T09:12:00.475Z,14.83
2019-01-05T09:18:22.324Z,14.37
2019-01-05T09:24:37.378Z,14.50
2019-01-05T09:30:49.458Z,14.17
2019-01-05T09:37:07.634Z,13.33
2019-01-05T09:43:18.631Z,13.03
2019-01-05T09:49:45.788Z,12.03
2019-01-05T09:55:59.395Z,12.37
2019-01-05T10:02:16.518Z,12.50
2019-01-05T10:08:52.844Z,12.57
2019-01-05T10:15:26.362Z,12.60
2019-01-05T10:22:13.410Z,13.40
2019-01-05T10:28:32.993Z,12.97
2019-01-05T10:35:15.734Z,12.07
2019-01-05T10:41:43.068Z,15.10
2019-01-05T10:47:46.237Z,14.20
2019-01-05T10:53:53.167Z,13.53
2019-01-05T10:59:57.618Z,12.07
2019-01-05T11:06:35.913Z,13.23
2019-01-05T11:13:07.782Z,11.57
2019-01-05T11:26:15.167Z,10.93
2019-01-05T11:33:15.184Z,9.50
2019-01-05T11:39:13.821Z,9.57
2019-01-05T11:45:16.903Z,8.23
2019-01-05T11:51:38.414Z,8.87
2019-01-05T12:04:39.536Z,8.27
2019-01-05T12:17:12.282Z,6.47
2019-01-05T12:23:34.697Z,6.37
2019-01-05T12:29:54.961Z,6.10
2019-01-05T12:36:30.585Z,5.33
2019-01-05T13:02:32.535Z,4.77
2019-01-05T13:08:15.066Z,5.20
2019-01-05T13:14:47.755Z,4.93
2019-01-05T13:21:07.440Z,4.87
2019-01-05T13:27:19.196Z,5.13
2019-01-05T13:35:13.736Z,5.10
2019-01-05T13:40:12.657Z,4.97
2019-01-05T13:46:31.391Z,5.17
2019-01-05T13:52:39.757Z,5.70
2019-01-05T13:57:59.341Z,7.40
2019-01-05T14:03:42.494Z,6.30
2019-01-05T14:09:01.027Z,5.93
2019-01-05T14:14:19.897Z,5.37
2019-01-05T14:19:40.754Z,6.07
2019-01-05T14:25:10.740Z,5.97
2019-01-05T14:30:26.390Z,6.60
2019-01-05T14:35:56.676Z,6.70
2019-01-05T14:40:52.425Z,7.30
2019-01-05T14:46:07.114Z,6.83
2019-01-05T14:51:21.723Z,6.80
2019-01-05T14:56:36.361Z,7.30
2019-01-05T15:01:49.889Z,7.10
2019-01-05T15:07:02.295Z,6.53
2019-01-05T15:12:19.187Z,6.53
2019-01-05T15:17:38.384Z,7.27
2019-01-05T15:22:50.505Z,7.53
2019-01-05T15:28:20.335Z,7.43
2019-01-05T15:33:33.906Z,7.37
2019-01-05T15:38:45.300Z,7.53
2019-01-05T15:44:03.708Z,6.83
2019-01-05T15:49:22.496Z,7.47
2019-01-05T15:54:38.476Z,7.40
2019-01-05T16:00:03.109Z,7.90
2019-01-05T16:05:38.960Z,7.43
2019-01-05T16:10:53.552Z,8.10
2019-01-05T16:16:26.835Z,7.93
2019-01-05T16:21:53.814Z,8.40
2019-01-05T16:27:12.236Z,8.60
2019-01-05T16:32:37.169Z,8.93
2019-01-05T16:37:51.520Z,9.67
2019-01-05T16:43:18.589Z,9.20
2019-01-05T16:48:32.168Z,9.63
2019-01-05T16:54:02.236Z,9.67
2019-01-05T16:59:17.378Z,10.43
2019-01-05T17:04:31.902Z,9.80
2019-01-05T17:10:04.981Z,10.30
2019-01-05T17:15:22.639Z,10.07
2019-01-05T17:20:28.231Z,9.90
2019-01-05T17:25:52.119Z,9.37
2019-01-05T17:31:05.760Z,9.40
2019-01-05T17:36:18.894Z,9.77
2019-01-05T17:41:33.981Z,9.90
2019-01-05T17:46:47.561Z,9.77
2019-01-05T17:52:05.621Z,9.57
2019-01-05T17:57:17.688Z,10.20
2019-01-05T18:02:35.255Z,10.43
2019-01-05T18:07:59.331Z,9.30
2019-01-05T18:13:17.301Z,9.67
2019-01-05T18:18:32.151Z,10.40
2019-01-05T18:23:45.229Z,9.53
2019-01-05T18:29:00.031Z,10.07
2019-01-05T18:34:24.012Z,10.83
2019-01-05T18:39:37.521Z,10.60
2019-01-05T18:44:50.863Z,9.60
2019-01-05T18:50:14.887Z,10.17
2019-01-05T18:55:35.893Z,10.20
2019-01-05T19:00:46.504Z,10.70
2019-01-05T19:06:01.099Z,10.27
2019-01-05T19:11:10.381Z,9.73
2019-01-05T19:16:32.408Z,10.33
2019-01-05T19:22:15.165Z,10.00
2019-01-05T19:27:42.854Z,11.50
2019-01-05T19:33:17.530Z,11.03
2019-01-05T19:38:33.680Z,9.83
2019-01-05T19:43:46.356Z,10.20
2019-01-05T19:49:03.707Z,9.97
2019-01-05T19:54:26.698Z,10.97
2019-01-05T19:59:54.946Z,9.40
2019-01-05T20:05:11.547Z,9.77
2019-01-05T20:10:27.787Z,10.10
2019-01-05T20:16:04.615Z,10.30
2019-01-05T20:21:16.465Z,11.23
2019-01-05T20:26:46.911Z,10.60
2019-01-05T20:32:13.813Z,10.50
2019-01-05T20:37:46.687Z,10.53
2019-01-05T20:43:04.682Z,10.87
2019-01-05T20:48:28.819Z,10.83
2019-01-05T20:53:49.415Z,9.57
2019-01-05T20:59:06.505Z,11.47
2019-01-05T21:04:52.256Z,10.43
2019-01-05T21:10:09.735Z,10.43
2019-01-05T21:15:37.310Z,9.93
2019-01-05T21:20:51.069Z,10.97
2019-01-05T21:26:06.487Z,10.43
2019-01-05T21:31:22.837Z,10.50
2019-01-05T21:36:37.424Z,10.63
2019-01-05T21:41:52.230Z,11.03
2019-01-05T21:47:19.533Z,10.00
2019-01-05T21:52:34.298Z,10.90
2019-01-05T21:57:50.775Z,11.87
2019-01-05T22:03:08.433Z,11.03
2019-01-05T22:08:19.205Z,10.67
2019-01-05T22:13:33.072Z,11.17
2019-01-05T22:18:47.809Z,11.27
2019-01-05T22:24:11.748Z,11.10
2019-01-05T22:29:35.539Z,11.27
2019-01-05T22:34:59.725Z,10.70
2019-01-05T22:40:22.280Z,9.70
2019-01-05T22:45:38.789Z,10.07
2019-01-05T22:50:52.248Z,9.60
2019-01-05T22:56:15.986Z,10.03
2019-01-05T23:01:42.858Z,9.80
2019-01-05T23:07:06.831Z,9.33
2019-01-05T23:12:19.502Z,8.70
2019-01-05T23:17:33.135Z,9.53
2019-01-05T23:22:56.902Z,9.83
2019-01-05T23:28:20.701Z,9.90
2019-01-05T23:33:38.593Z,9.10
2019-01-05T23:38:52.364Z,10.67
2019-01-05T23:44:19.326Z,8.77
2019-01-05T23:49:43.251Z,9.73
2019-01-05T23:55:00.972Z,10.00
